sensor_id;sensor_type;location;lat;lon;timestamp;temperature;humidity
13464;DHT22;6804;48.774;9.174;2022-12-16T00:01:58;2.10;99.90
13464;DHT22;6804;48.774;9.174;2022-12-16T00:04:29;2.20;99.90
13464;DHT22;6804;48.774;9.174;2022-12-16T00:06:59;2.10;99.90
13464;DHT22;6804;48.774;9.174;2022-12-16T00:09:26;2.00;99.90
13464;DHT22;6804;48.774;9.174;2022-12-16T00:11:56;2.00;99.90
13464;DHT22;6804;48.774;9.174;2022-12-16T00:14:26;2.00;99.90
13464;DHT22;6804;48.774;9.174;2022-12-16T00:16:56;2.00;99.90
13464;DHT22;6804;48.774;9.174;2022-12-16T00:19:23;1.90;99.90
13464;DHT22;6804;48.774;9.174;2022-12-16T00:21:50;1.90;99.90
13464;DHT22;6804;48.774;9.174;2022-12-16T00:24:18;1.90;99.90
13464;DHT22;6804;48.774;9.174;2022-12-16T00:26:45;1.90;99.90
13464;DHT22;6804;48.774;9.174;2022-12-16T00:29:14;1.90;99.90
13464;DHT22;6804;48.774;9.174;2022-12-16T00:31:42;1.90;99.90
13464;DHT22;6804;48.774;9.174;2022-12-16T00:34:14;1.80;99.90
13464;DHT22;6804;48.774;9.174;2022-12-16T00:36:42;1.80;99.90
13464;DHT22;6804;48.774;9.174;2022-12-16T00:39:10;1.80;99.90
13464;DHT22;6804;48.774;9.174;2022-12-16T00:41:37;1.80;99.90
13464;DHT22;6804;48.774;9.174;2022-12-16T00:44:04;1.80;99.90
13464;DHT22;6804;48.774;9.174;2022-12-16T00:46:31;1.70;99.90
13464;DHT22;6804;48.774;9.174;2022-12-16T00:49:02;1.60;99.90
13464;DHT22;6804;48.774;9.174;2022-12-16T00:51:30;1.60;99.90
13464;DHT22;6804;48.774;9.174;2022-12-16T00:53:58;1.60;99.90
13464;DHT22;6804;48.774;9.174;2022-12-16T00:56:27;1.70;99.90
13464;DHT22;6804;48.774;9.174;2022-12-16T00:58:54;1.80;99.90
13464;DHT22;6804;48.774;9.174;2022-12-16T01:01:22;1.90;99.90
13464;DHT22;6804;48.774;9.174;2022-12-16T01:03:55;1.80;99.90
13464;DHT22;6804;48.774;9.174;2022-12-16T01:06:22;1.80;99.90
13464;DHT22;6804;48.774;9.174;2022-12-16T01:08:51;1.80;99.90
13464;DHT22;6804;48.774;9.174;2022-12-16T01:11:19;1.80;99.90
13464;DHT22;6804;48.774;9.174;2022-12-16T01:13:48;1.80;99.90
13464;DHT22;6804;48.774;9.174;2022-12-16T01:16:19;1.80;99.90
13464;DHT22;6804;48.774;9.174;2022-12-16T01:18:48;1.80;99.90
13464;DHT22;6804;48.774;9.174;2022-12-16T01:21:15;1.80;99.90
13464;DHT22;6804;48.774;9.174;2022-12-16T01:23:42;1.80;99.90
13464;DHT22;6804;48.774;9.174;2022-12-16T01:26:14;1.80;99.90
13464;DHT22;6804;48.774;9.174;2022-12-16T01:28:42;1.70;99.90
13464;DHT22;6804;48.774;9.174;2022-12-16T01:31:09;1.70;99.90
13464;DHT22;6804;48.774;9.174;2022-12-16T01:33:37;1.60;99.90
13464;DHT22;6804;48.774;9.174;2022-12-16T01:36:09;1.60;99.90
13464;DHT22;6804;48.774;9.174;2022-12-16T01:38:37;1.50;99.90
13464;DHT22;6804;48.774;9.174;2022-12-16T01:41:05;1.40;99.90
13464;DHT22;6804;48.774;9.174;2022-12-16T01:43:35;1.30;99.90
13464;DHT22;6804;48.774;9.174;2022-12-16T01:46:05;1.30;99.90
13464;DHT22;6804;48.774;9.174;2022-12-16T01:48:40;1.20;99.90
13464;DHT22;6804;48.774;9.174;2022-12-16T01:51:11;1.20;99.90
13464;DHT22;6804;48.774;9.174;2022-12-16T01:53:44;1.30;99.90
13464;DHT22;6804;48.774;9.174;2022-12-16T01:56:14;1.30;99.90
13464;DHT22;6804;48.774;9.174;2022-12-16T01:58:45;1.40;99.90
13464;DHT22;6804;48.774;9.174;2022-12-16T02:01:13;1.40;99.90
13464;DHT22;6804;48.774;9.174;2022-12-16T02:03:45;1.50;99.90
13464;DHT22;6804;48.774;9.174;2022-12-16T02:06:13;1.60;99.90
13464;DHT22;6804;48.774;9.174;2022-12-16T02:08:40;1.60;99.90
13464;DHT22;6804;48.774;9.174;2022-12-16T02:11:19;1.70;99.90
13464;DHT22;6804;48.774;9.174;2022-12-16T02:14:08;1.70;99.90
13464;DHT22;6804;48.774;9.174;2022-12-16T02:16:46;1.70;99.90
13464;DHT22;6804;48.774;9.174;2022-12-16T02:19:38;1.70;99.90
13464;DHT22;6804;48.774;9.174;2022-12-16T02:22:20;1.70;99.90
13464;DHT22;6804;48.774;9.174;2022-12-16T02:25:04;1.70;99.90
13464;DHT22;6804;48.774;9.174;2022-12-16T02:27:56;1.70;99.90
13464;DHT22;6804;48.774;9.174;2022-12-16T02:30:50;1.70;99.90
13464;DHT22;6804;48.774;9.174;2022-12-16T02:33:43;1.70;99.90
13464;DHT22;6804;48.774;9.174;2022-12-16T02:36:24;1.70;99.90
13464;DHT22;6804;48.774;9.174;2022-12-16T02:38:59;1.70;99.90
13464;DHT22;6804;48.774;9.174;2022-12-16T02:41:40;1.70;99.90
13464;DHT22;6804;48.774;9.174;2022-12-16T02:44:09;1.70;99.90
13464;DHT22;6804;48.774;9.174;2022-12-16T02:46:51;1.60;99.90
13464;DHT22;6804;48.774;9.174;2022-12-16T02:49:52;1.60;99.90
13464;DHT22;6804;48.774;9.174;2022-12-16T02:52:22;1.60;99.90
13464;DHT22;6804;48.774;9.174;2022-12-16T02:54:53;1.60;99.90
13464;DHT22;6804;48.774;9.174;2022-12-16T02:57:36;1.60;99.90
13464;DHT22;6804;48.774;9.174;2022-12-16T03:00:08;1.60;99.90
13464;DHT22;6804;48.774;9.174;2022-12-16T03:02:43;1.70;99.90
13464;DHT22;6804;48.774;9.174;2022-12-16T03:05:17;1.70;99.90
13464;DHT22;6804;48.774;9.174;2022-12-16T03:07:47;1.70;99.90
13464;DHT22;6804;48.774;9.174;2022-12-16T03:10:18;1.70;99.90
13464;DHT22;6804;48.774;9.174;2022-12-16T03:12:49;1.80;99.90
13464;DHT22;6804;48.774;9.174;2022-12-16T03:15:19;1.80;99.90
13464;DHT22;6804;48.774;9.174;2022-12-16T03:17:51;1.80;99.90
13464;DHT22;6804;48.774;9.174;2022-12-16T03:20:23;1.70;99.90
13464;DHT22;6804;48.774;9.174;2022-12-16T03:22:57;1.60;99.90
13464;DHT22;6804;48.774;9.174;2022-12-16T03:25:25;1.60;99.90
13464;DHT22;6804;48.774;9.174;2022-12-16T03:28:03;1.60;99.90
13464;DHT22;6804;48.774;9.174;2022-12-16T03:30:35;1.60;99.90
13464;DHT22;6804;48.774;9.174;2022-12-16T03:33:09;1.60;99.90
13464;DHT22;6804;48.774;9.174;2022-12-16T03:35:46;1.60;99.90
13464;DHT22;6804;48.774;9.174;2022-12-16T03:38:15;1.70;99.90
13464;DHT22;6804;48.774;9.174;2022-12-16T03:40:45;1.70;99.90
13464;DHT22;6804;48.774;9.174;2022-12-16T03:43:15;1.70;99.90
13464;DHT22;6804;48.774;9.174;2022-12-16T03:45:45;1.70;99.90
13464;DHT22;6804;48.774;9.174;2022-12-16T03:48:15;1.70;99.90
13464;DHT22;6804;48.774;9.174;2022-12-16T03:50:45;1.80;99.90
13464;DHT22;6804;48.774;9.174;2022-12-16T03:53:12;1.70;99.90
13464;DHT22;6804;48.774;9.174;2022-12-16T03:55:40;1.70;99.90
13464;DHT22;6804;48.774;9.174;2022-12-16T03:58:07;1.70;99.90
13464;DHT22;6804;48.774;9.174;2022-12-16T04:00:36;1.70;99.90
13464;DHT22;6804;48.774;9.174;2022-12-16T04:03:03;1.70;99.90
13464;DHT22;6804;48.774;9.174;2022-12-16T04:05:32;1.70;99.90
13464;DHT22;6804;48.774;9.174;2022-12-16T04:08:08;1.70;99.90
13464;DHT22;6804;48.774;9.174;2022-12-16T04:10:35;1.70;99.90
13464;DHT22;6804;48.774;9.174;2022-12-16T04:13:20;1.70;99.90
13464;DHT22;6804;48.774;9.174;2022-12-16T04:16:07;1.70;99.90
13464;DHT22;6804;48.774;9.174;2022-12-16T04:18:54;1.70;99.90
13464;DHT22;6804;48.774;9.174;2022-12-16T04:21:40;1.70;99.90
13464;DHT22;6804;48.774;9.174;2022-12-16T04:24:28;1.70;99.90
13464;DHT22;6804;48.774;9.174;2022-12-16T04:26:56;1.70;99.90
13464;DHT22;6804;48.774;9.174;2022-12-16T04:29:41;1.70;99.90
13464;DHT22;6804;48.774;9.174;2022-12-16T04:32:22;1.80;99.90
13464;DHT22;6804;48.774;9.174;2022-12-16T04:34:52;1.80;99.90
13464;DHT22;6804;48.774;9.174;2022-12-16T04:37:19;1.80;99.90
13464;DHT22;6804;48.774;9.174;2022-12-16T04:40:07;1.80;99.90
13464;DHT22;6804;48.774;9.174;2022-12-16T04:42:55;1.70;99.90
13464;DHT22;6804;48.774;9.174;2022-12-16T04:45:39;1.60;99.90
13464;DHT22;6804;48.774;9.174;2022-12-16T04:48:24;1.70;99.90
13464;DHT22;6804;48.774;9.174;2022-12-16T04:51:08;1.70;99.90
13464;DHT22;6804;48.774;9.174;2022-12-16T04:53:54;1.70;99.90
13464;DHT22;6804;48.774;9.174;2022-12-16T04:56:39;1.70;99.90
13464;DHT22;6804;48.774;9.174;2022-12-16T04:59:23;1.80;99.90
13464;DHT22;6804;48.774;9.174;2022-12-16T05:02:07;1.80;99.90
13464;DHT22;6804;48.774;9.174;2022-12-16T05:04:52;1.80;99.90
13464;DHT22;6804;48.774;9.174;2022-12-16T05:07:39;1.80;99.90
13464;DHT22;6804;48.774;9.174;2022-12-16T05:10:27;1.70;99.90
13464;DHT22;6804;48.774;9.174;2022-12-16T05:13:12;1.70;99.90
13464;DHT22;6804;48.774;9.174;2022-12-16T05:15:56;1.60;99.90
13464;DHT22;6804;48.774;9.174;2022-12-16T05:18:41;1.60;99.90
13464;DHT22;6804;48.774;9.174;2022-12-16T05:21:25;1.50;99.90
13464;DHT22;6804;48.774;9.174;2022-12-16T05:24:25;1.50;99.90
13464;DHT22;6804;48.774;9.174;2022-12-16T05:27:11;1.40;99.90
13464;DHT22;6804;48.774;9.174;2022-12-16T05:29:56;1.40;99.90
13464;DHT22;6804;48.774;9.174;2022-12-16T05:32:40;1.40;99.90
13464;DHT22;6804;48.774;9.174;2022-12-16T05:35:29;1.50;99.90
13464;DHT22;6804;48.774;9.174;2022-12-16T05:38:13;1.50;99.90
13464;DHT22;6804;48.774;9.174;2022-12-16T05:41:00;1.50;99.90
13464;DHT22;6804;48.774;9.174;2022-12-16T05:43:46;1.50;99.90
13464;DHT22;6804;48.774;9.174;2022-12-16T05:46:30;1.50;99.90
13464;DHT22;6804;48.774;9.174;2022-12-16T05:49:23;1.60;99.90
13464;DHT22;6804;48.774;9.174;2022-12-16T05:52:08;1.50;99.90
13464;DHT22;6804;48.774;9.174;2022-12-16T05:55:01;1.50;99.90
13464;DHT22;6804;48.774;9.174;2022-12-16T05:57:49;1.50;99.90
13464;DHT22;6804;48.774;9.174;2022-12-16T06:00:35;1.60;99.90
13464;DHT22;6804;48.774;9.174;2022-12-16T06:03:20;1.60;99.90
13464;DHT22;6804;48.774;9.174;2022-12-16T06:06:05;1.70;99.90
13464;DHT22;6804;48.774;9.174;2022-12-16T06:08:49;1.60;99.90
13464;DHT22;6804;48.774;9.174;2022-12-16T06:11:34;1.60;99.90
13464;DHT22;6804;48.774;9.174;2022-12-16T06:14:18;1.60;99.90
13464;DHT22;6804;48.774;9.174;2022-12-16T06:17:04;1.50;99.90
13464;DHT22;6804;48.774;9.174;2022-12-16T06:19:49;1.50;99.90
13464;DHT22;6804;48.774;9.174;2022-12-16T06:22:33;1.40;99.90
13464;DHT22;6804;48.774;9.174;2022-12-16T06:25:29;1.40;99.90
13464;DHT22;6804;48.774;9.174;2022-12-16T06:28:14;1.30;99.90
13464;DHT22;6804;48.774;9.174;2022-12-16T06:31:01;1.30;99.90
13464;DHT22;6804;48.774;9.174;2022-12-16T06:33:47;1.30;99.90
13464;DHT22;6804;48.774;9.174;2022-12-16T06:36:32;1.40;99.90
13464;DHT22;6804;48.774;9.174;2022-12-16T06:39:17;1.40;99.90
13464;DHT22;6804;48.774;9.174;2022-12-16T06:42:01;1.50;99.90
13464;DHT22;6804;48.774;9.174;2022-12-16T06:44:46;1.40;99.90
13464;DHT22;6804;48.774;9.174;2022-12-16T06:47:31;1.40;99.90
13464;DHT22;6804;48.774;9.174;2022-12-16T06:50:16;1.50;99.90
13464;DHT22;6804;48.774;9.174;2022-12-16T06:53:00;1.50;99.90
13464;DHT22;6804;48.774;9.174;2022-12-16T06:55:45;1.50;99.90
13464;DHT22;6804;48.774;9.174;2022-12-16T06:58:32;1.60;99.90
13464;DHT22;6804;48.774;9.174;2022-12-16T07:01:19;1.50;99.90
13464;DHT22;6804;48.774;9.174;2022-12-16T07:04:04;1.50;99.90
13464;DHT22;6804;48.774;9.174;2022-12-16T07:06:53;1.40;99.90
13464;DHT22;6804;48.774;9.174;2022-12-16T07:09:52;1.40;99.90
13464;DHT22;6804;48.774;9.174;2022-12-16T07:12:40;1.30;99.90
13464;DHT22;6804;48.774;9.174;2022-12-16T07:15:42;1.30;99.90
13464;DHT22;6804;48.774;9.174;2022-12-16T07:18:26;1.30;99.90
13464;DHT22;6804;48.774;9.174;2022-12-16T07:21:13;1.30;99.90
13464;DHT22;6804;48.774;9.174;2022-12-16T07:24:02;1.40;99.90
13464;DHT22;6804;48.774;9.174;2022-12-16T07:26:47;1.30;99.90
13464;DHT22;6804;48.774;9.174;2022-12-16T07:29:31;1.30;99.90
13464;DHT22;6804;48.774;9.174;2022-12-16T07:32:15;1.20;99.90
13464;DHT22;6804;48.774;9.174;2022-12-16T07:35:06;1.20;99.90
13464;DHT22;6804;48.774;9.174;2022-12-16T07:37:53;1.30;99.90
13464;DHT22;6804;48.774;9.174;2022-12-16T07:40:39;1.30;99.90
13464;DHT22;6804;48.774;9.174;2022-12-16T07:43:24;1.40;99.90
13464;DHT22;6804;48.774;9.174;2022-12-16T07:46:14;1.40;99.90
13464;DHT22;6804;48.774;9.174;2022-12-16T07:49:02;1.40;99.90
13464;DHT22;6804;48.774;9.174;2022-12-16T07:51:47;1.50;99.90
13464;DHT22;6804;48.774;9.174;2022-12-16T07:54:34;1.50;99.90
13464;DHT22;6804;48.774;9.174;2022-12-16T07:57:20;1.50;99.90
13464;DHT22;6804;48.774;9.174;2022-12-16T08:00:06;1.50;99.90
13464;DHT22;6804;48.774;9.174;2022-12-16T08:02:52;1.60;99.90
13464;DHT22;6804;48.774;9.174;2022-12-16T08:05:37;1.70;99.90
13464;DHT22;6804;48.774;9.174;2022-12-16T08:08:21;1.70;99.90
13464;DHT22;6804;48.774;9.174;2022-12-16T08:11:06;1.60;99.90
13464;DHT22;6804;48.774;9.174;2022-12-16T08:13:55;1.70;99.90
13464;DHT22;6804;48.774;9.174;2022-12-16T08:16:43;1.70;99.90
13464;DHT22;6804;48.774;9.174;2022-12-16T08:19:27;1.70;99.90
13464;DHT22;6804;48.774;9.174;2022-12-16T08:22:14;1.70;99.90
13464;DHT22;6804;48.774;9.174;2022-12-16T08:24:58;1.80;99.90
13464;DHT22;6804;48.774;9.174;2022-12-16T08:27:58;1.70;99.90
13464;DHT22;6804;48.774;9.174;2022-12-16T08:30:48;1.70;99.90
13464;DHT22;6804;48.774;9.174;2022-12-16T08:33:36;1.80;99.90
13464;DHT22;6804;48.774;9.174;2022-12-16T08:36:21;1.90;99.90
13464;DHT22;6804;48.774;9.174;2022-12-16T08:39:06;1.90;99.90
13464;DHT22;6804;48.774;9.174;2022-12-16T08:41:53;2.00;99.90
13464;DHT22;6804;48.774;9.174;2022-12-16T08:44:38;2.00;99.90
13464;DHT22;6804;48.774;9.174;2022-12-16T08:47:27;2.10;99.90
13464;DHT22;6804;48.774;9.174;2022-12-16T08:50:14;2.00;99.90
13464;DHT22;6804;48.774;9.174;2022-12-16T08:53:13;2.10;99.90
13464;DHT22;6804;48.774;9.174;2022-12-16T08:55:58;2.10;99.90
13464;DHT22;6804;48.774;9.174;2022-12-16T08:58:46;2.10;99.90
13464;DHT22;6804;48.774;9.174;2022-12-16T09:01:30;2.10;99.90
13464;DHT22;6804;48.774;9.174;2022-12-16T09:04:16;2.00;99.90
13464;DHT22;6804;48.774;9.174;2022-12-16T09:07:01;2.10;99.90
13464;DHT22;6804;48.774;9.174;2022-12-16T09:09:45;2.10;99.90
13464;DHT22;6804;48.774;9.174;2022-12-16T09:12:30;2.20;99.90
13464;DHT22;6804;48.774;9.174;2022-12-16T09:15:14;2.20;99.90
13464;DHT22;6804;48.774;9.174;2022-12-16T09:17:59;2.20;99.90
13464;DHT22;6804;48.774;9.174;2022-12-16T09:20:45;2.20;99.90
13464;DHT22;6804;48.774;9.174;2022-12-16T09:23:29;2.20;99.90
13464;DHT22;6804;48.774;9.174;2022-12-16T09:26:16;2.20;99.90
13464;DHT22;6804;48.774;9.174;2022-12-16T09:29:01;2.20;99.90
13464;DHT22;6804;48.774;9.174;2022-12-16T09:31:47;2.20;99.90
13464;DHT22;6804;48.774;9.174;2022-12-16T09:34:40;2.30;99.90
13464;DHT22;6804;48.774;9.174;2022-12-16T09:37:26;2.20;99.90
13464;DHT22;6804;48.774;9.174;2022-12-16T09:40:13;2.20;99.90
13464;DHT22;6804;48.774;9.174;2022-12-16T09:43:05;2.20;99.90
13464;DHT22;6804;48.774;9.174;2022-12-16T09:45:58;2.20;99.90
13464;DHT22;6804;48.774;9.174;2022-12-16T09:48:48;2.10;99.90
13464;DHT22;6804;48.774;9.174;2022-12-16T09:51:39;2.00;99.90
13464;DHT22;6804;48.774;9.174;2022-12-16T09:54:29;2.00;99.90
13464;DHT22;6804;48.774;9.174;2022-12-16T09:57:15;2.10;99.90
13464;DHT22;6804;48.774;9.174;2022-12-16T10:00:03;2.10;99.90
13464;DHT22;6804;48.774;9.174;2022-12-16T10:02:49;2.20;99.90
13464;DHT22;6804;48.774;9.174;2022-12-16T10:05:42;2.20;99.90
13464;DHT22;6804;48.774;9.174;2022-12-16T10:08:37;2.30;99.90
13464;DHT22;6804;48.774;9.174;2022-12-16T10:11:32;2.30;99.90
13464;DHT22;6804;48.774;9.174;2022-12-16T10:14:24;2.20;99.90
13464;DHT22;6804;48.774;9.174;2022-12-16T10:17:14;2.20;99.90
13464;DHT22;6804;48.774;9.174;2022-12-16T10:20:09;2.20;99.90
13464;DHT22;6804;48.774;9.174;2022-12-16T10:23:03;2.30;99.90
13464;DHT22;6804;48.774;9.174;2022-12-16T10:25:51;2.10;99.90
13464;DHT22;6804;48.774;9.174;2022-12-16T10:28:44;2.10;99.90
13464;DHT22;6804;48.774;9.174;2022-12-16T10:31:30;2.20;99.90
13464;DHT22;6804;48.774;9.174;2022-12-16T10:34:18;2.30;99.90
13464;DHT22;6804;48.774;9.174;2022-12-16T10:37:03;2.30;99.90
13464;DHT22;6804;48.774;9.174;2022-12-16T10:39:50;2.40;99.90
13464;DHT22;6804;48.774;9.174;2022-12-16T10:42:43;2.40;99.90
13464;DHT22;6804;48.774;9.174;2022-12-16T10:45:35;2.50;99.90
13464;DHT22;6804;48.774;9.174;2022-12-16T10:48:23;2.40;99.90
13464;DHT22;6804;48.774;9.174;2022-12-16T10:51:12;2.50;99.90
13464;DHT22;6804;48.774;9.174;2022-12-16T10:54:13;2.40;99.90
13464;DHT22;6804;48.774;9.174;2022-12-16T10:57:04;2.40;99.90
13464;DHT22;6804;48.774;9.174;2022-12-16T10:59:50;2.50;99.90
13464;DHT22;6804;48.774;9.174;2022-12-16T11:02:39;2.50;99.90
13464;DHT22;6804;48.774;9.174;2022-12-16T11:05:31;2.60;99.90
13464;DHT22;6804;48.774;9.174;2022-12-16T11:08:26;2.50;99.90
13464;DHT22;6804;48.774;9.174;2022-12-16T11:11:14;2.50;99.90
13464;DHT22;6804;48.774;9.174;2022-12-16T11:14:21;2.40;99.90
13464;DHT22;6804;48.774;9.174;2022-12-16T11:17:15;2.40;99.90
13464;DHT22;6804;48.774;9.174;2022-12-16T11:20:13;2.40;99.90
13464;DHT22;6804;48.774;9.174;2022-12-16T11:23:12;2.40;99.90
13464;DHT22;6804;48.774;9.174;2022-12-16T11:26:09;2.50;99.90
13464;DHT22;6804;48.774;9.174;2022-12-16T11:29:09;2.40;99.90
13464;DHT22;6804;48.774;9.174;2022-12-16T11:31:58;2.40;99.90
13464;DHT22;6804;48.774;9.174;2022-12-16T11:34:48;2.50;99.90
13464;DHT22;6804;48.774;9.174;2022-12-16T11:37:40;2.40;99.90
13464;DHT22;6804;48.774;9.174;2022-12-16T11:40:25;2.20;99.90
13464;DHT22;6804;48.774;9.174;2022-12-16T11:43:12;2.20;99.90
13464;DHT22;6804;48.774;9.174;2022-12-16T11:46:00;2.30;99.90
13464;DHT22;6804;48.774;9.174;2022-12-16T11:48:53;2.40;99.90
13464;DHT22;6804;48.774;9.174;2022-12-16T11:51:40;2.50;99.90
13464;DHT22;6804;48.774;9.174;2022-12-16T11:54:30;2.70;99.90
13464;DHT22;6804;48.774;9.174;2022-12-16T11:57:24;2.80;99.90
13464;DHT22;6804;48.774;9.174;2022-12-16T12:00:14;3.00;99.90
13464;DHT22;6804;48.774;9.174;2022-12-16T12:03:11;3.20;99.90
13464;DHT22;6804;48.774;9.174;2022-12-16T12:06:02;3.30;99.90
13464;DHT22;6804;48.774;9.174;2022-12-16T12:09:03;3.40;99.90
13464;DHT22;6804;48.774;9.174;2022-12-16T12:11:55;3.40;99.90
13464;DHT22;6804;48.774;9.174;2022-12-16T12:14:55;3.30;99.90
13464;DHT22;6804;48.774;9.174;2022-12-16T12:17:45;3.30;99.90
13464;DHT22;6804;48.774;9.174;2022-12-16T12:20:43;3.20;99.90
13464;DHT22;6804;48.774;9.174;2022-12-16T12:23:39;3.20;99.90
13464;DHT22;6804;48.774;9.174;2022-12-16T12:26:36;3.20;99.90
13464;DHT22;6804;48.774;9.174;2022-12-16T12:29:31;3.00;99.90
13464;DHT22;6804;48.774;9.174;2022-12-16T12:32:27;2.90;99.90
13464;DHT22;6804;48.774;9.174;2022-12-16T12:35:25;2.80;99.90
13464;DHT22;6804;48.774;9.174;2022-12-16T12:38:17;2.70;99.90
13464;DHT22;6804;48.774;9.174;2022-12-16T12:41:10;2.80;99.90
13464;DHT22;6804;48.774;9.174;2022-12-16T12:44:10;2.70;99.90
13464;DHT22;6804;48.774;9.174;2022-12-16T12:47:06;2.70;99.90
13464;DHT22;6804;48.774;9.174;2022-12-16T12:49:56;2.60;99.90
13464;DHT22;6804;48.774;9.174;2022-12-16T12:53:10;2.60;99.90
13464;DHT22;6804;48.774;9.174;2022-12-16T12:56:04;2.60;99.90
13464;DHT22;6804;48.774;9.174;2022-12-16T12:58:55;2.60;99.90
13464;DHT22;6804;48.774;9.174;2022-12-16T13:01:42;2.60;99.90
13464;DHT22;6804;48.774;9.174;2022-12-16T13:04:36;2.60;99.90
13464;DHT22;6804;48.774;9.174;2022-12-16T13:07:24;2.60;99.90
13464;DHT22;6804;48.774;9.174;2022-12-16T13:10:30;2.60;99.90
13464;DHT22;6804;48.774;9.174;2022-12-16T13:13:44;2.70;99.90
13464;DHT22;6804;48.774;9.174;2022-12-16T13:20:01;2.50;99.90
13464;DHT22;6804;48.774;9.174;2022-12-16T13:22:46;2.50;99.90
13464;DHT22;6804;48.774;9.174;2022-12-16T13:25:39;2.50;99.90
13464;DHT22;6804;48.774;9.174;2022-12-16T13:28:28;2.50;99.90
13464;DHT22;6804;48.774;9.174;2022-12-16T13:31:14;2.60;99.90
13464;DHT22;6804;48.774;9.174;2022-12-16T13:34:04;2.70;99.90
13464;DHT22;6804;48.774;9.174;2022-12-16T13:36:56;2.70;99.90
13464;DHT22;6804;48.774;9.174;2022-12-16T13:40:04;2.70;99.90
13464;DHT22;6804;48.774;9.174;2022-12-16T13:42:52;2.70;99.90
13464;DHT22;6804;48.774;9.174;2022-12-16T13:46:11;2.70;99.90
13464;DHT22;6804;48.774;9.174;2022-12-16T13:52:27;2.60;99.90
13464;DHT22;6804;48.774;9.174;2022-12-16T13:55:22;2.60;99.90
13464;DHT22;6804;48.774;9.174;2022-12-16T13:58:18;2.60;99.90
13464;DHT22;6804;48.774;9.174;2022-12-16T14:01:10;2.60;99.90
13464;DHT22;6804;48.774;9.174;2022-12-16T14:03:58;2.50;99.90
13464;DHT22;6804;48.774;9.174;2022-12-16T14:06:44;2.30;99.90
13464;DHT22;6804;48.774;9.174;2022-12-16T14:09:34;2.20;99.90
13464;DHT22;6804;48.774;9.174;2022-12-16T14:12:41;2.20;99.90
13464;DHT22;6804;48.774;9.174;2022-12-16T14:15:30;2.10;99.90
13464;DHT22;6804;48.774;9.174;2022-12-16T14:18:25;2.00;99.90
13464;DHT22;6804;48.774;9.174;2022-12-16T14:21:19;1.90;99.90
13464;DHT22;6804;48.774;9.174;2022-12-16T14:24:11;1.90;99.90
13464;DHT22;6804;48.774;9.174;2022-12-16T14:27:04;1.90;99.90
13464;DHT22;6804;48.774;9.174;2022-12-16T14:29:49;1.90;99.90
13464;DHT22;6804;48.774;9.174;2022-12-16T14:32:37;2.00;99.90
13464;DHT22;6804;48.774;9.174;2022-12-16T14:35:24;2.00;99.90
13464;DHT22;6804;48.774;9.174;2022-12-16T14:38:23;2.00;99.90
13464;DHT22;6804;48.774;9.174;2022-12-16T14:41:12;2.00;99.90
13464;DHT22;6804;48.774;9.174;2022-12-16T14:44:00;1.90;99.90
13464;DHT22;6804;48.774;9.174;2022-12-16T14:46:50;1.90;99.90
13464;DHT22;6804;48.774;9.174;2022-12-16T14:49:56;1.80;99.90
13464;DHT22;6804;48.774;9.174;2022-12-16T14:52:41;1.90;99.90
13464;DHT22;6804;48.774;9.174;2022-12-16T14:55:28;1.90;99.90
13464;DHT22;6804;48.774;9.174;2022-12-16T14:58:15;1.90;99.90
13464;DHT22;6804;48.774;9.174;2022-12-16T15:01:10;2.00;99.90
13464;DHT22;6804;48.774;9.174;2022-12-16T15:03:56;2.10;99.90
13464;DHT22;6804;48.774;9.174;2022-12-16T15:06:43;2.00;99.90
13464;DHT22;6804;48.774;9.174;2022-12-16T15:09:34;2.10;99.90
13464;DHT22;6804;48.774;9.174;2022-12-16T15:12:25;2.10;99.90
13464;DHT22;6804;48.774;9.174;2022-12-16T15:15:15;2.20;99.90
13464;DHT22;6804;48.774;9.174;2022-12-16T15:18:03;2.20;99.90
13464;DHT22;6804;48.774;9.174;2022-12-16T15:20:51;2.20;99.90
13464;DHT22;6804;48.774;9.174;2022-12-16T15:23:38;2.10;99.90
13464;DHT22;6804;48.774;9.174;2022-12-16T15:26:29;2.20;99.90
13464;DHT22;6804;48.774;9.174;2022-12-16T15:29:30;2.20;99.90
13464;DHT22;6804;48.774;9.174;2022-12-16T15:32:28;2.20;99.90
13464;DHT22;6804;48.774;9.174;2022-12-16T15:35:26;2.20;99.90
13464;DHT22;6804;48.774;9.174;2022-12-16T15:38:14;2.20;99.90
13464;DHT22;6804;48.774;9.174;2022-12-16T15:41:01;2.20;99.90
13464;DHT22;6804;48.774;9.174;2022-12-16T15:43:56;2.20;99.90
13464;DHT22;6804;48.774;9.174;2022-12-16T15:46:55;2.10;99.90
13464;DHT22;6804;48.774;9.174;2022-12-16T15:49:39;2.10;99.90
13464;DHT22;6804;48.774;9.174;2022-12-16T15:52:34;2.10;99.90
13464;DHT22;6804;48.774;9.174;2022-12-16T15:55:39;2.20;99.90
13464;DHT22;6804;48.774;9.174;2022-12-16T15:58:27;2.20;99.90
13464;DHT22;6804;48.774;9.174;2022-12-16T16:01:14;2.20;99.90
13464;DHT22;6804;48.774;9.174;2022-12-16T16:03:59;2.20;99.90
13464;DHT22;6804;48.774;9.174;2022-12-16T16:06:50;2.30;99.90
13464;DHT22;6804;48.774;9.174;2022-12-16T16:09:40;2.30;99.90
13464;DHT22;6804;48.774;9.174;2022-12-16T16:12:25;2.30;99.90
13464;DHT22;6804;48.774;9.174;2022-12-16T16:15:12;2.30;99.90
13464;DHT22;6804;48.774;9.174;2022-12-16T16:17:59;2.20;99.90
13464;DHT22;6804;48.774;9.174;2022-12-16T16:20:47;2.20;99.90
13464;DHT22;6804;48.774;9.174;2022-12-16T16:23:32;2.10;99.90
13464;DHT22;6804;48.774;9.174;2022-12-16T16:26:20;2.10;99.90
13464;DHT22;6804;48.774;9.174;2022-12-16T16:29:05;2.00;99.90
13464;DHT22;6804;48.774;9.174;2022-12-16T16:31:51;2.00;99.90
13464;DHT22;6804;48.774;9.174;2022-12-16T16:34:41;1.90;99.90
13464;DHT22;6804;48.774;9.174;2022-12-16T16:37:27;1.90;99.90
13464;DHT22;6804;48.774;9.174;2022-12-16T16:40:17;1.80;99.90
13464;DHT22;6804;48.774;9.174;2022-12-16T16:43:03;1.80;99.90
13464;DHT22;6804;48.774;9.174;2022-12-16T16:45:53;1.90;99.90
13464;DHT22;6804;48.774;9.174;2022-12-16T16:48:41;1.90;99.90
13464;DHT22;6804;48.774;9.174;2022-12-16T16:51:26;1.90;99.90
13464;DHT22;6804;48.774;9.174;2022-12-16T16:54:11;1.90;99.90
13464;DHT22;6804;48.774;9.174;2022-12-16T16:56:55;2.00;99.90
13464;DHT22;6804;48.774;9.174;2022-12-16T16:59:41;2.00;99.90
13464;DHT22;6804;48.774;9.174;2022-12-16T17:02:26;1.90;99.90
13464;DHT22;6804;48.774;9.174;2022-12-16T17:05:11;1.90;99.90
13464;DHT22;6804;48.774;9.174;2022-12-16T17:07:56;1.90;99.90
13464;DHT22;6804;48.774;9.174;2022-12-16T17:10:41;1.90;99.90
13464;DHT22;6804;48.774;9.174;2022-12-16T17:13:31;1.90;99.90
13464;DHT22;6804;48.774;9.174;2022-12-16T17:16:17;1.90;99.90
13464;DHT22;6804;48.774;9.174;2022-12-16T17:19:02;1.90;99.90
13464;DHT22;6804;48.774;9.174;2022-12-16T17:21:49;2.00;99.90
13464;DHT22;6804;48.774;9.174;2022-12-16T17:24:33;1.90;99.90
13464;DHT22;6804;48.774;9.174;2022-12-16T17:27:15;1.80;99.90
13464;DHT22;6804;48.774;9.174;2022-12-16T17:30:00;1.90;99.90
13464;DHT22;6804;48.774;9.174;2022-12-16T17:32:47;1.90;99.90
13464;DHT22;6804;48.774;9.174;2022-12-16T17:35:48;2.00;99.90
13464;DHT22;6804;48.774;9.174;2022-12-16T17:38:35;2.00;99.90
13464;DHT22;6804;48.774;9.174;2022-12-16T17:41:20;1.90;99.90
13464;DHT22;6804;48.774;9.174;2022-12-16T17:44:05;2.00;99.90
13464;DHT22;6804;48.774;9.174;2022-12-16T17:46:56;1.90;99.90
13464;DHT22;6804;48.774;9.174;2022-12-16T17:49:42;1.90;99.90
13464;DHT22;6804;48.774;9.174;2022-12-16T17:52:27;1.90;99.90
13464;DHT22;6804;48.774;9.174;2022-12-16T17:55:14;1.90;99.90
13464;DHT22;6804;48.774;9.174;2022-12-16T17:58:01;2.00;99.90
13464;DHT22;6804;48.774;9.174;2022-12-16T18:00:48;2.00;99.90
13464;DHT22;6804;48.774;9.174;2022-12-16T18:03:33;1.90;99.90